sensor_id;sensor_type;location;lat;lon;timestamp;temperature;humidity
31046;DHT22;17711;54.018;9.300;2023-01-30T00:00:36;5.80;99.90
31046;DHT22;17711;54.018;9.300;2023-01-30T00:03:06;5.80;99.90
31046;DHT22;17711;54.018;9.300;2023-01-30T00:05:35;5.80;99.90
31046;DHT22;17711;54.018;9.300;2023-01-30T00:08:03;5.90;99.90
31046;DHT22;17711;54.018;9.300;2023-01-30T00:10:32;5.90;99.90
31046;DHT22;17711;54.018;9.300;2023-01-30T00:13:03;5.90;99.90
31046;DHT22;17711;54.018;9.300;2023-01-30T00:15:32;6.00;99.90
31046;DHT22;17711;54.018;9.300;2023-01-30T00:18:02;6.00;99.90
31046;DHT22;17711;54.018;9.300;2023-01-30T00:20:32;6.00;99.90
31046;DHT22;17711;54.018;9.300;2023-01-30T00:23:00;6.00;99.90
31046;DHT22;17711;54.018;9.300;2023-01-30T00:25:29;6.00;99.90
31046;DHT22;17711;54.018;9.300;2023-01-30T00:27:59;6.10;99.90
31046;DHT22;17711;54.018;9.300;2023-01-30T00:30:28;6.10;99.90
31046;DHT22;17711;54.018;9.300;2023-01-30T00:32:57;6.10;99.90
31046;DHT22;17711;54.018;9.300;2023-01-30T00:35:28;6.10;99.90
31046;DHT22;17711;54.018;9.300;2023-01-30T00:37:59;6.20;99.90
31046;DHT22;17711;54.018;9.300;2023-01-30T00:40:28;6.10;99.90
31046;DHT22;17711;54.018;9.300;2023-01-30T00:42:57;6.20;99.90
31046;DHT22;17711;54.018;9.300;2023-01-30T00:45:43;6.20;99.90
31046;DHT22;17711;54.018;9.300;2023-01-30T00:48:30;6.20;99.90
31046;DHT22;17711;54.018;9.300;2023-01-30T00:50:59;6.10;99.90
31046;DHT22;17711;54.018;9.300;2023-01-30T00:53:29;6.20;99.90
31046;DHT22;17711;54.018;9.300;2023-01-30T00:55:58;6.20;99.90
31046;DHT22;17711;54.018;9.300;2023-01-30T00:58:26;6.20;99.90
31046;DHT22;17711;54.018;9.300;2023-01-30T01:00:55;6.20;99.90
31046;DHT22;17711;54.018;9.300;2023-01-30T01:03:24;6.10;99.90
31046;DHT22;17711;54.018;9.300;2023-01-30T01:05:52;6.20;99.90
31046;DHT22;17711;54.018;9.300;2023-01-30T01:08:21;6.20;99.90
31046;DHT22;17711;54.018;9.300;2023-01-30T01:10:50;6.20;99.90
31046;DHT22;17711;54.018;9.300;2023-01-30T01:13:19;6.20;99.90
31046;DHT22;17711;54.018;9.300;2023-01-30T01:15:48;6.20;99.90
31046;DHT22;17711;54.018;9.300;2023-01-30T01:18:18;6.20;99.90
31046;DHT22;17711;54.018;9.300;2023-01-30T01:20:47;6.20;99.90
31046;DHT22;17711;54.018;9.300;2023-01-30T01:23:15;6.20;99.90
31046;DHT22;17711;54.018;9.300;2023-01-30T01:25:44;6.20;99.90
31046;DHT22;17711;54.018;9.300;2023-01-30T01:28:14;6.30;99.90
31046;DHT22;17711;54.018;9.300;2023-01-30T01:30:47;6.20;99.90
31046;DHT22;17711;54.018;9.300;2023-01-30T01:33:16;6.30;99.90
31046;DHT22;17711;54.018;9.300;2023-01-30T01:35:44;6.30;99.90
31046;DHT22;17711;54.018;9.300;2023-01-30T01:38:14;6.30;99.90
31046;DHT22;17711;54.018;9.300;2023-01-30T01:40:45;6.30;99.90
31046;DHT22;17711;54.018;9.300;2023-01-30T01:43:35;6.30;99.90
31046;DHT22;17711;54.018;9.300;2023-01-30T01:46:10;6.30;99.90
31046;DHT22;17711;54.018;9.300;2023-01-30T01:48:45;6.40;99.90
31046;DHT22;17711;54.018;9.300;2023-01-30T01:51:17;6.40;99.90
31046;DHT22;17711;54.018;9.300;2023-01-30T01:53:52;6.40;99.90
31046;DHT22;17711;54.018;9.300;2023-01-30T01:56:22;6.40;99.90
31046;DHT22;17711;54.018;9.300;2023-01-30T01:58:55;6.40;99.90
31046;DHT22;17711;54.018;9.300;2023-01-30T02:01:25;6.50;99.90
31046;DHT22;17711;54.018;9.300;2023-01-30T02:03:57;6.50;99.90
31046;DHT22;17711;54.018;9.300;2023-01-30T02:06:28;6.50;99.90
31046;DHT22;17711;54.018;9.300;2023-01-30T02:08:59;6.50;99.90
31046;DHT22;17711;54.018;9.300;2023-01-30T02:11:32;6.50;99.90
31046;DHT22;17711;54.018;9.300;2023-01-30T02:14:05;6.50;99.90
31046;DHT22;17711;54.018;9.300;2023-01-30T02:16:35;6.60;99.90
31046;DHT22;17711;54.018;9.300;2023-01-30T02:19:23;6.60;99.90
31046;DHT22;17711;54.018;9.300;2023-01-30T02:25:20;6.60;99.90
31046;DHT22;17711;54.018;9.300;2023-01-30T02:28:13;6.60;99.90
31046;DHT22;17711;54.018;9.300;2023-01-30T02:31:06;6.60;99.90
31046;DHT22;17711;54.018;9.300;2023-01-30T02:33:42;6.60;99.90
31046;DHT22;17711;54.018;9.300;2023-01-30T02:36:19;6.60;99.90
31046;DHT22;17711;54.018;9.300;2023-01-30T02:38:55;6.60;99.90
31046;DHT22;17711;54.018;9.300;2023-01-30T02:41:35;6.60;99.90
31046;DHT22;17711;54.018;9.300;2023-01-30T02:44:12;6.60;99.90
31046;DHT22;17711;54.018;9.300;2023-01-30T02:46:52;6.60;99.90
31046;DHT22;17711;54.018;9.300;2023-01-30T02:49:25;6.60;99.90
31046;DHT22;17711;54.018;9.300;2023-01-30T02:51:57;6.60;99.90
31046;DHT22;17711;54.018;9.300;2023-01-30T02:54:27;6.60;99.90
31046;DHT22;17711;54.018;9.300;2023-01-30T02:56:57;6.60;99.90
31046;DHT22;17711;54.018;9.300;2023-01-30T02:59:29;6.50;99.90
31046;DHT22;17711;54.018;9.300;2023-01-30T03:05:49;6.40;99.90
31046;DHT22;17711;54.018;9.300;2023-01-30T03:08:27;6.50;99.90
31046;DHT22;17711;54.018;9.300;2023-01-30T03:11:01;6.40;99.90
31046;DHT22;17711;54.018;9.300;2023-01-30T03:13:40;6.40;99.90
31046;DHT22;17711;54.018;9.300;2023-01-30T03:16:12;6.30;99.90
31046;DHT22;17711;54.018;9.300;2023-01-30T03:18:44;6.30;99.90
31046;DHT22;17711;54.018;9.300;2023-01-30T03:21:13;6.30;99.90
31046;DHT22;17711;54.018;9.300;2023-01-30T03:23:43;6.30;99.90
31046;DHT22;17711;54.018;9.300;2023-01-30T03:26:17;6.30;99.90
31046;DHT22;17711;54.018;9.300;2023-01-30T03:28:49;6.20;99.90
31046;DHT22;17711;54.018;9.300;2023-01-30T03:31:18;6.20;99.90
31046;DHT22;17711;54.018;9.300;2023-01-30T03:33:51;6.20;99.90
31046;DHT22;17711;54.018;9.300;2023-01-30T03:36:20;6.20;99.90
31046;DHT22;17711;54.018;9.300;2023-01-30T03:38:50;6.20;99.90
31046;DHT22;17711;54.018;9.300;2023-01-30T03:41:18;6.20;99.90
31046;DHT22;17711;54.018;9.300;2023-01-30T03:44:02;6.20;99.90
31046;DHT22;17711;54.018;9.300;2023-01-30T03:46:31;6.20;99.90
31046;DHT22;17711;54.018;9.300;2023-01-30T03:49:01;6.20;99.90
31046;DHT22;17711;54.018;9.300;2023-01-30T03:51:29;6.20;99.90
31046;DHT22;17711;54.018;9.300;2023-01-30T03:53:58;6.10;99.90
31046;DHT22;17711;54.018;9.300;2023-01-30T03:56:26;6.10;99.90
31046;DHT22;17711;54.018;9.300;2023-01-30T03:58:55;6.10;99.90
31046;DHT22;17711;54.018;9.300;2023-01-30T04:01:50;6.10;99.90
31046;DHT22;17711;54.018;9.300;2023-01-30T04:04:22;6.10;99.90
31046;DHT22;17711;54.018;9.300;2023-01-30T04:06:50;6.10;99.90
31046;DHT22;17711;54.018;9.300;2023-01-30T04:09:19;6.10;99.90
31046;DHT22;17711;54.018;9.300;2023-01-30T04:11:47;6.00;99.90
31046;DHT22;17711;54.018;9.300;2023-01-30T04:14:18;6.00;99.90
31046;DHT22;17711;54.018;9.300;2023-01-30T04:16:47;6.00;99.90
31046;DHT22;17711;54.018;9.300;2023-01-30T04:19:15;5.90;99.90
31046;DHT22;17711;54.018;9.300;2023-01-30T04:21:45;5.90;99.90
31046;DHT22;17711;54.018;9.300;2023-01-30T04:24:13;5.90;99.90
31046;DHT22;17711;54.018;9.300;2023-01-30T04:26:43;5.90;99.90
31046;DHT22;17711;54.018;9.300;2023-01-30T04:29:12;5.90;99.90
31046;DHT22;17711;54.018;9.300;2023-01-30T04:31:40;5.90;99.90
31046;DHT22;17711;54.018;9.300;2023-01-30T04:34:09;5.90;99.90
31046;DHT22;17711;54.018;9.300;2023-01-30T04:36:37;5.90;99.90
31046;DHT22;17711;54.018;9.300;2023-01-30T04:39:07;5.80;99.90
31046;DHT22;17711;54.018;9.300;2023-01-30T04:41:36;5.80;99.90
31046;DHT22;17711;54.018;9.300;2023-01-30T04:44:04;5.80;99.90
31046;DHT22;17711;54.018;9.300;2023-01-30T04:46:33;5.80;99.90
31046;DHT22;17711;54.018;9.300;2023-01-30T04:49:03;5.80;99.90
31046;DHT22;17711;54.018;9.300;2023-01-30T04:51:31;5.80;99.90
31046;DHT22;17711;54.018;9.300;2023-01-30T04:54:00;5.90;99.90
31046;DHT22;17711;54.018;9.300;2023-01-30T04:56:29;5.90;99.90
31046;DHT22;17711;54.018;9.300;2023-01-30T04:58:58;5.80;99.90
31046;DHT22;17711;54.018;9.300;2023-01-30T05:01:30;5.80;99.90
31046;DHT22;17711;54.018;9.300;2023-01-30T05:04:03;5.70;99.90
31046;DHT22;17711;54.018;9.300;2023-01-30T05:06:32;5.60;99.90
31046;DHT22;17711;54.018;9.300;2023-01-30T05:09:03;5.60;99.90
31046;DHT22;17711;54.018;9.300;2023-01-30T05:11:36;5.60;99.90
31046;DHT22;17711;54.018;9.300;2023-01-30T05:14:04;5.60;99.90
31046;DHT22;17711;54.018;9.300;2023-01-30T05:16:33;5.60;99.90
31046;DHT22;17711;54.018;9.300;2023-01-30T05:19:01;5.60;99.90
31046;DHT22;17711;54.018;9.300;2023-01-30T05:21:30;5.60;99.90
31046;DHT22;17711;54.018;9.300;2023-01-30T05:23:58;5.60;99.90
31046;DHT22;17711;54.018;9.300;2023-01-30T05:26:27;5.60;99.90
31046;DHT22;17711;54.018;9.300;2023-01-30T05:28:57;5.60;99.90
31046;DHT22;17711;54.018;9.300;2023-01-30T05:31:25;5.60;99.90
31046;DHT22;17711;54.018;9.300;2023-01-30T05:34:00;5.60;99.90
31046;DHT22;17711;54.018;9.300;2023-01-30T05:36:29;5.60;99.90
31046;DHT22;17711;54.018;9.300;2023-01-30T05:38:57;5.60;99.90
31046;DHT22;17711;54.018;9.300;2023-01-30T05:41:26;5.60;99.90
31046;DHT22;17711;54.018;9.300;2023-01-30T05:43:55;5.50;99.90
31046;DHT22;17711;54.018;9.300;2023-01-30T05:46:24;5.50;99.90
31046;DHT22;17711;54.018;9.300;2023-01-30T05:48:52;5.50;99.90
31046;DHT22;17711;54.018;9.300;2023-01-30T05:51:25;5.50;99.90
31046;DHT22;17711;54.018;9.300;2023-01-30T05:53:54;5.40;99.90
31046;DHT22;17711;54.018;9.300;2023-01-30T05:56:23;5.40;99.90
31046;DHT22;17711;54.018;9.300;2023-01-30T05:58:54;5.40;99.90
31046;DHT22;17711;54.018;9.300;2023-01-30T06:01:25;5.40;99.90
31046;DHT22;17711;54.018;9.300;2023-01-30T06:03:54;5.50;99.90
31046;DHT22;17711;54.018;9.300;2023-01-30T06:06:23;5.50;99.90
31046;DHT22;17711;54.018;9.300;2023-01-30T06:08:53;5.50;99.90
31046;DHT22;17711;54.018;9.300;2023-01-30T06:11:25;5.50;99.90
31046;DHT22;17711;54.018;9.300;2023-01-30T06:13:53;5.50;99.90
31046;DHT22;17711;54.018;9.300;2023-01-30T06:16:24;5.50;99.90
31046;DHT22;17711;54.018;9.300;2023-01-30T06:18:56;5.50;99.90
31046;DHT22;17711;54.018;9.300;2023-01-30T06:21:24;5.50;99.90
31046;DHT22;17711;54.018;9.300;2023-01-30T06:23:53;5.60;99.90
31046;DHT22;17711;54.018;9.300;2023-01-30T06:26:21;5.60;99.90
31046;DHT22;17711;54.018;9.300;2023-01-30T06:28:50;5.60;99.90
31046;DHT22;17711;54.018;9.300;2023-01-30T06:31:18;5.60;99.90
31046;DHT22;17711;54.018;9.300;2023-01-30T06:33:48;5.60;99.90
31046;DHT22;17711;54.018;9.300;2023-01-30T06:36:17;5.60;99.90
31046;DHT22;17711;54.018;9.300;2023-01-30T06:38:45;5.50;99.90
31046;DHT22;17711;54.018;9.300;2023-01-30T06:41:26;5.50;99.90
31046;DHT22;17711;54.018;9.300;2023-01-30T06:43:55;5.50;99.90
31046;DHT22;17711;54.018;9.300;2023-01-30T06:46:23;5.50;99.90
31046;DHT22;17711;54.018;9.300;2023-01-30T06:48:53;5.50;99.90
31046;DHT22;17711;54.018;9.300;2023-01-30T06:51:22;5.50;99.90
31046;DHT22;17711;54.018;9.300;2023-01-30T06:53:53;5.50;99.90
31046;DHT22;17711;54.018;9.300;2023-01-30T06:56:21;5.50;99.90
31046;DHT22;17711;54.018;9.300;2023-01-30T06:58:50;5.50;99.90
31046;DHT22;17711;54.018;9.300;2023-01-30T07:01:18;5.50;99.90
31046;DHT22;17711;54.018;9.300;2023-01-30T07:03:47;5.50;99.90
31046;DHT22;17711;54.018;9.300;2023-01-30T07:06:17;5.60;99.90
31046;DHT22;17711;54.018;9.300;2023-01-30T07:08:46;5.60;99.90
31046;DHT22;17711;54.018;9.300;2023-01-30T07:11:14;5.70;99.90
31046;DHT22;17711;54.018;9.300;2023-01-30T07:13:42;5.60;99.90
31046;DHT22;17711;54.018;9.300;2023-01-30T07:16:11;5.60;99.90
31046;DHT22;17711;54.018;9.300;2023-01-30T07:18:41;5.70;99.90
31046;DHT22;17711;54.018;9.300;2023-01-30T07:21:09;5.70;99.90
31046;DHT22;17711;54.018;9.300;2023-01-30T07:23:39;5.70;99.90
31046;DHT22;17711;54.018;9.300;2023-01-30T07:26:12;5.70;99.90
31046;DHT22;17711;54.018;9.300;2023-01-30T07:28:41;5.70;99.90
31046;DHT22;17711;54.018;9.300;2023-01-30T07:31:10;5.80;99.90
31046;DHT22;17711;54.018;9.300;2023-01-30T07:33:38;5.80;99.90
31046;DHT22;17711;54.018;9.300;2023-01-30T07:36:07;5.80;99.90
31046;DHT22;17711;54.018;9.300;2023-01-30T07:38:40;5.80;99.90
31046;DHT22;17711;54.018;9.300;2023-01-30T07:41:09;5.70;99.90
31046;DHT22;17711;54.018;9.300;2023-01-30T07:43:38;5.70;99.90
31046;DHT22;17711;54.018;9.300;2023-01-30T07:46:06;5.70;99.90
31046;DHT22;17711;54.018;9.300;2023-01-30T07:48:46;5.80;99.90
31046;DHT22;17711;54.018;9.300;2023-01-30T07:51:15;5.80;99.90
31046;DHT22;17711;54.018;9.300;2023-01-30T07:53:48;5.80;99.90
31046;DHT22;17711;54.018;9.300;2023-01-30T07:56:17;5.80;99.90
31046;DHT22;17711;54.018;9.300;2023-01-30T07:58:47;5.90;99.90
31046;DHT22;17711;54.018;9.300;2023-01-30T08:01:16;5.80;99.90
31046;DHT22;17711;54.018;9.300;2023-01-30T08:03:45;5.80;99.90
31046;DHT22;17711;54.018;9.300;2023-01-30T08:06:15;5.80;99.90
31046;DHT22;17711;54.018;9.300;2023-01-30T08:08:45;5.70;99.90
31046;DHT22;17711;54.018;9.300;2023-01-30T08:11:14;5.80;99.90
31046;DHT22;17711;54.018;9.300;2023-01-30T08:13:42;5.80;99.90
31046;DHT22;17711;54.018;9.300;2023-01-30T08:16:11;5.80;99.90
31046;DHT22;17711;54.018;9.300;2023-01-30T08:18:39;5.90;99.90
31046;DHT22;17711;54.018;9.300;2023-01-30T08:21:09;6.00;99.90
31046;DHT22;17711;54.018;9.300;2023-01-30T08:23:37;6.20;99.90
31046;DHT22;17711;54.018;9.300;2023-01-30T08:26:07;6.20;99.90
31046;DHT22;17711;54.018;9.300;2023-01-30T08:28:36;6.10;99.90
31046;DHT22;17711;54.018;9.300;2023-01-30T08:31:09;6.10;99.90
31046;DHT22;17711;54.018;9.300;2023-01-30T08:33:38;6.10;99.90
31046;DHT22;17711;54.018;9.300;2023-01-30T08:36:07;6.10;99.90
31046;DHT22;17711;54.018;9.300;2023-01-30T08:38:36;6.20;99.90
31046;DHT22;17711;54.018;9.300;2023-01-30T08:41:06;6.30;99.90
31046;DHT22;17711;54.018;9.300;2023-01-30T08:43:35;6.30;99.90
31046;DHT22;17711;54.018;9.300;2023-01-30T08:46:04;6.30;99.90
31046;DHT22;17711;54.018;9.300;2023-01-30T08:48:33;6.40;99.90
31046;DHT22;17711;54.018;9.300;2023-01-30T08:51:17;6.60;99.90
31046;DHT22;17711;54.018;9.300;2023-01-30T08:53:45;6.80;99.90
31046;DHT22;17711;54.018;9.300;2023-01-30T08:56:15;7.10;99.90
31046;DHT22;17711;54.018;9.300;2023-01-30T08:58:44;7.30;99.90
31046;DHT22;17711;54.018;9.300;2023-01-30T09:01:13;7.30;99.90
31046;DHT22;17711;54.018;9.300;2023-01-30T09:03:42;7.30;99.90
31046;DHT22;17711;54.018;9.300;2023-01-30T09:06:10;7.20;99.90
31046;DHT22;17711;54.018;9.300;2023-01-30T09:08:39;7.10;99.90
31046;DHT22;17711;54.018;9.300;2023-01-30T09:11:42;7.10;99.90
31046;DHT22;17711;54.018;9.300;2023-01-30T09:14:19;7.10;99.90
31046;DHT22;17711;54.018;9.300;2023-01-30T09:16:49;7.00;99.90
31046;DHT22;17711;54.018;9.300;2023-01-30T09:19:22;7.00;99.90
31046;DHT22;17711;54.018;9.300;2023-01-30T09:21:51;6.90;99.90
31046;DHT22;17711;54.018;9.300;2023-01-30T09:24:20;7.00;99.90
31046;DHT22;17711;54.018;9.300;2023-01-30T09:26:55;7.00;99.90
31046;DHT22;17711;54.018;9.300;2023-01-30T09:29:25;7.00;99.90
31046;DHT22;17711;54.018;9.300;2023-01-30T09:31:54;7.00;99.90
31046;DHT22;17711;54.018;9.300;2023-01-30T09:34:27;7.00;99.90
31046;DHT22;17711;54.018;9.300;2023-01-30T09:36:56;6.90;99.90
31046;DHT22;17711;54.018;9.300;2023-01-30T09:39:26;6.90;99.90
31046;DHT22;17711;54.018;9.300;2023-01-30T09:42:45;6.90;99.90
31046;DHT22;17711;54.018;9.300;2023-01-30T09:45:37;6.90;99.90
31046;DHT22;17711;54.018;9.300;2023-01-30T09:48:13;6.80;99.90
31046;DHT22;17711;54.018;9.300;2023-01-30T09:53:56;7.20;99.90
31046;DHT22;17711;54.018;9.300;2023-01-30T09:56:36;7.10;99.90
31046;DHT22;17711;54.018;9.300;2023-01-30T09:59:09;7.00;99.90
31046;DHT22;17711;54.018;9.300;2023-01-30T10:01:50;6.70;99.90
31046;DHT22;17711;54.018;9.300;2023-01-30T10:04:26;6.50;99.90
31046;DHT22;17711;54.018;9.300;2023-01-30T10:07:03;6.40;99.90
31046;DHT22;17711;54.018;9.300;2023-01-30T10:09:44;6.30;99.90
31046;DHT22;17711;54.018;9.300;2023-01-30T10:12:25;6.20;99.90
31046;DHT22;17711;54.018;9.300;2023-01-30T10:15:14;6.10;99.90
31046;DHT22;17711;54.018;9.300;2023-01-30T10:18:00;5.80;99.90
31046;DHT22;17711;54.018;9.300;2023-01-30T10:20:43;5.60;99.90
31046;DHT22;17711;54.018;9.300;2023-01-30T10:23:27;5.50;99.90
31046;DHT22;17711;54.018;9.300;2023-01-30T10:26:02;5.50;99.90
31046;DHT22;17711;54.018;9.300;2023-01-30T10:28:35;5.40;99.90
31046;DHT22;17711;54.018;9.300;2023-01-30T10:31:10;5.40;99.90
31046;DHT22;17711;54.018;9.300;2023-01-30T10:33:43;5.40;99.90
31046;DHT22;17711;54.018;9.300;2023-01-30T10:36:21;5.50;99.90
31046;DHT22;17711;54.018;9.300;2023-01-30T10:38:52;5.60;99.90
31046;DHT22;17711;54.018;9.300;2023-01-30T10:41:24;5.70;99.90
31046;DHT22;17711;54.018;9.300;2023-01-30T10:43:59;5.80;99.90
31046;DHT22;17711;54.018;9.300;2023-01-30T10:46:50;5.90;99.90
31046;DHT22;17711;54.018;9.300;2023-01-30T10:49:30;6.00;99.90
31046;DHT22;17711;54.018;9.300;2023-01-30T10:52:16;6.10;99.90
31046;DHT22;17711;54.018;9.300;2023-01-30T10:54:50;6.20;99.90
31046;DHT22;17711;54.018;9.300;2023-01-30T10:57:28;6.30;99.90
31046;DHT22;17711;54.018;9.300;2023-01-30T11:00:00;6.30;99.90
31046;DHT22;17711;54.018;9.300;2023-01-30T11:02:38;7.10;99.90
31046;DHT22;17711;54.018;9.300;2023-01-30T11:05:13;8.50;99.90
31046;DHT22;17711;54.018;9.300;2023-01-30T11:07:45;10.10;99.90
31046;DHT22;17711;54.018;9.300;2023-01-30T11:10:16;11.10;99.90
31046;DHT22;17711;54.018;9.300;2023-01-30T11:12:46;11.20;99.90
31046;DHT22;17711;54.018;9.300;2023-01-30T11:15:15;11.00;99.90
31046;DHT22;17711;54.018;9.300;2023-01-30T11:17:45;11.80;99.90
31046;DHT22;17711;54.018;9.300;2023-01-30T11:20:16;12.20;99.90
31046;DHT22;17711;54.018;9.300;2023-01-30T11:22:50;11.30;99.90
31046;DHT22;17711;54.018;9.300;2023-01-30T11:25:22;10.40;99.90
31046;DHT22;17711;54.018;9.300;2023-01-30T11:27:56;9.80;99.90
31046;DHT22;17711;54.018;9.300;2023-01-30T11:30:28;9.30;99.90
31046;DHT22;17711;54.018;9.300;2023-01-30T11:33:10;9.00;99.90
31046;DHT22;17711;54.018;9.300;2023-01-30T11:35:51;8.60;99.90
31046;DHT22;17711;54.018;9.300;2023-01-30T11:38:22;8.00;99.90
31046;DHT22;17711;54.018;9.300;2023-01-30T11:41:05;7.40;99.90
31046;DHT22;17711;54.018;9.300;2023-01-30T11:43:35;7.10;99.90
31046;DHT22;17711;54.018;9.300;2023-01-30T11:46:07;7.10;99.90
31046;DHT22;17711;54.018;9.300;2023-01-30T11:48:43;6.90;99.90
31046;DHT22;17711;54.018;9.300;2023-01-30T11:51:35;6.70;99.90
31046;DHT22;17711;54.018;9.300;2023-01-30T11:54:06;6.70;99.90
31046;DHT22;17711;54.018;9.300;2023-01-30T11:56:39;6.70;99.90
31046;DHT22;17711;54.018;9.300;2023-01-30T11:59:22;7.10;99.90
31046;DHT22;17711;54.018;9.300;2023-01-30T12:02:03;7.20;99.90
31046;DHT22;17711;54.018;9.300;2023-01-30T12:04:33;7.20;99.90
31046;DHT22;17711;54.018;9.300;2023-01-30T12:07:09;7.30;99.90
31046;DHT22;17711;54.018;9.300;2023-01-30T12:09:43;7.90;99.90
31046;DHT22;17711;54.018;9.300;2023-01-30T12:12:26;8.20;99.90
31046;DHT22;17711;54.018;9.300;2023-01-30T12:15:02;8.20;99.90
31046;DHT22;17711;54.018;9.300;2023-01-30T12:17:38;8.10;99.90
31046;DHT22;17711;54.018;9.300;2023-01-30T12:20:16;8.00;99.90
31046;DHT22;17711;54.018;9.300;2023-01-30T12:22:54;8.00;99.90
31046;DHT22;17711;54.018;9.300;2023-01-30T12:25:32;8.10;99.90
31046;DHT22;17711;54.018;9.300;2023-01-30T12:28:11;8.30;99.90
31046;DHT22;17711;54.018;9.300;2023-01-30T12:30:47;8.50;99.90
31046;DHT22;17711;54.018;9.300;2023-01-30T12:33:17;8.50;99.90
31046;DHT22;17711;54.018;9.300;2023-01-30T12:35:54;8.50;99.90
31046;DHT22;17711;54.018;9.300;2023-01-30T12:38:35;8.30;99.90
31046;DHT22;17711;54.018;9.300;2023-01-30T12:41:20;8.10;99.90
31046;DHT22;17711;54.018;9.300;2023-01-30T12:46:56;8.00;99.90
31046;DHT22;17711;54.018;9.300;2023-01-30T12:49:46;7.90;99.90
31046;DHT22;17711;54.018;9.300;2023-01-30T12:52:40;7.90;99.90
31046;DHT22;17711;54.018;9.300;2023-01-30T12:55:23;8.00;99.90
31046;DHT22;17711;54.018;9.300;2023-01-30T12:57:56;8.10;99.90
31046;DHT22;17711;54.018;9.300;2023-01-30T13:00:39;8.00;99.90
31046;DHT22;17711;54.018;9.300;2023-01-30T13:03:21;7.80;99.90
31046;DHT22;17711;54.018;9.300;2023-01-30T13:05:59;7.60;99.90
31046;DHT22;17711;54.018;9.300;2023-01-30T13:08:40;7.50;99.90
31046;DHT22;17711;54.018;9.300;2023-01-30T13:11:22;7.40;99.90
31046;DHT22;17711;54.018;9.300;2023-01-30T13:13:59;7.20;99.90
31046;DHT22;17711;54.018;9.300;2023-01-30T13:16:37;7.10;99.90
31046;DHT22;17711;54.018;9.300;2023-01-30T13:19:15;7.10;99.90
31046;DHT22;17711;54.018;9.300;2023-01-30T13:21:55;7.10;99.90
31046;DHT22;17711;54.018;9.300;2023-01-30T13:24:36;7.30;99.90
31046;DHT22;17711;54.018;9.300;2023-01-30T13:27:11;7.60;99.90
31046;DHT22;17711;54.018;9.300;2023-01-30T13:29:42;7.80;99.90
31046;DHT22;17711;54.018;9.300;2023-01-30T13:32:13;8.10;99.90
31046;DHT22;17711;54.018;9.300;2023-01-30T13:34:45;8.20;99.90
31046;DHT22;17711;54.018;9.300;2023-01-30T13:37:16;8.30;99.90
31046;DHT22;17711;54.018;9.300;2023-01-30T13:39:49;8.30;99.90
31046;DHT22;17711;54.018;9.300;2023-01-30T13:42:26;8.20;99.90
31046;DHT22;17711;54.018;9.300;2023-01-30T13:44:55;8.10;99.90
31046;DHT22;17711;54.018;9.300;2023-01-30T13:47:41;8.10;99.90
31046;DHT22;17711;54.018;9.300;2023-01-30T13:50:25;8.00;99.90
31046;DHT22;17711;54.018;9.300;2023-01-30T13:52:58;8.10;99.90
31046;DHT22;17711;54.018;9.300;2023-01-30T13:55:34;8.10;99.90
31046;DHT22;17711;54.018;9.300;2023-01-30T13:58:16;8.10;99.90
31046;DHT22;17711;54.018;9.300;2023-01-30T14:00:54;8.10;99.90
31046;DHT22;17711;54.018;9.300;2023-01-30T14:03:26;8.20;99.90
31046;DHT22;17711;54.018;9.300;2023-01-30T14:09:24;8.40;99.90
31046;DHT22;17711;54.018;9.300;2023-01-30T14:11:57;8.50;99.90
31046;DHT22;17711;54.018;9.300;2023-01-30T14:14:29;8.50;99.90
31046;DHT22;17711;54.018;9.300;2023-01-30T14:17:11;8.50;99.90
31046;DHT22;17711;54.018;9.300;2023-01-30T14:19:42;8.60;99.90
31046;DHT22;17711;54.018;9.300;2023-01-30T14:22:21;8.70;99.90
31046;DHT22;17711;54.018;9.300;2023-01-30T14:31:51;8.50;99.90
31046;DHT22;17711;54.018;9.300;2023-01-30T14:34:48;8.70;99.90
31046;DHT22;17711;54.018;9.300;2023-01-30T14:37:28;8.70;99.90
31046;DHT22;17711;54.018;9.300;2023-01-30T14:39:57;8.50;99.90
31046;DHT22;17711;54.018;9.300;2023-01-30T14:42:27;8.30;99.90
31046;DHT22;17711;54.018;9.300;2023-01-30T14:44:58;8.20;99.90
31046;DHT22;17711;54.018;9.300;2023-01-30T14:47:30;8.00;99.90
31046;DHT22;17711;54.018;9.300;2023-01-30T14:50:18;7.90;99.90
31046;DHT22;17711;54.018;9.300;2023-01-30T14:52:54;7.80;99.90
31046;DHT22;17711;54.018;9.300;2023-01-30T14:55:25;7.70;99.90
31046;DHT22;17711;54.018;9.300;2023-01-30T14:57:58;7.60;99.90
31046;DHT22;17711;54.018;9.300;2023-01-30T15:00:30;7.60;99.90
31046;DHT22;17711;54.018;9.300;2023-01-30T15:03:06;7.50;99.90
31046;DHT22;17711;54.018;9.300;2023-01-30T15:05:40;7.50;99.90
31046;DHT22;17711;54.018;9.300;2023-01-30T15:08:14;7.40;99.90
31046;DHT22;17711;54.018;9.300;2023-01-30T15:10:54;7.40;99.90
31046;DHT22;17711;54.018;9.300;2023-01-30T15:13:43;7.30;99.90
31046;DHT22;17711;54.018;9.300;2023-01-30T15:16:35;7.30;99.90
31046;DHT22;17711;54.018;9.300;2023-01-30T15:19:23;7.30;99.90
31046;DHT22;17711;54.018;9.300;2023-01-30T15:22:04;7.20;99.90
31046;DHT22;17711;54.018;9.300;2023-01-30T15:24:49;7.20;99.90
31046;DHT22;17711;54.018;9.300;2023-01-30T15:27:26;7.10;99.90
31046;DHT22;17711;54.018;9.300;2023-01-30T15:30:17;7.00;99.90
31046;DHT22;17711;54.018;9.300;2023-01-30T15:33:07;7.00;99.90
31046;DHT22;17711;54.018;9.300;2023-01-30T15:35:44;6.90;99.90
31046;DHT22;17711;54.018;9.300;2023-01-30T15:38:25;6.80;99.90
31046;DHT22;17711;54.018;9.300;2023-01-30T15:41:01;6.80;99.90
31046;DHT22;17711;54.018;9.300;2023-01-30T15:43:48;6.80;99.90
31046;DHT22;17711;54.018;9.300;2023-01-30T15:46:27;6.80;99.90
31046;DHT22;17711;54.018;9.300;2023-01-30T15:49:25;6.80;99.90
31046;DHT22;17711;54.018;9.300;2023-01-30T15:52:05;6.80;99.90
31046;DHT22;17711;54.018;9.300;2023-01-30T15:54:36;6.70;99.90
31046;DHT22;17711;54.018;9.300;2023-01-30T15:57:13;6.70;99.90
31046;DHT22;17711;54.018;9.300;2023-01-30T15:59:46;6.60;99.90
31046;DHT22;17711;54.018;9.300;2023-01-30T16:02:23;6.50;99.90
31046;DHT22;17711;54.018;9.300;2023-01-30T16:05:11;6.40;99.90
31046;DHT22;17711;54.018;9.300;2023-01-30T16:07:44;6.40;99.90
31046;DHT22;17711;54.018;9.300;2023-01-30T16:10:15;6.40;99.90
31046;DHT22;17711;54.018;9.300;2023-01-30T16:12:45;6.40;99.90
31046;DHT22;17711;54.018;9.300;2023-01-30T16:15:45;6.40;99.90
31046;DHT22;17711;54.018;9.300;2023-01-30T16:18:29;6.40;99.90
31046;DHT22;17711;54.018;9.300;2023-01-30T16:21:04;6.40;99.90
31046;DHT22;17711;54.018;9.300;2023-01-30T16:23:37;6.30;99.90
31046;DHT22;17711;54.018;9.300;2023-01-30T16:26:15;6.30;99.90
31046;DHT22;17711;54.018;9.300;2023-01-30T16:28:58;6.20;99.90
31046;DHT22;17711;54.018;9.300;2023-01-30T16:31:31;6.20;99.90
31046;DHT22;17711;54.018;9.300;2023-01-30T16:34:03;6.10;99.90
31046;DHT22;17711;54.018;9.300;2023-01-30T16:36:38;6.10;99.90
31046;DHT22;17711;54.018;9.300;2023-01-30T16:39:28;6.10;99.90
31046;DHT22;17711;54.018;9.300;2023-01-30T16:42:02;6.20;99.90
31046;DHT22;17711;54.018;9.300;2023-01-30T16:44:31;6.20;99.90
31046;DHT22;17711;54.018;9.300;2023-01-30T16:47:02;6.20;99.90
31046;DHT22;17711;54.018;9.300;2023-01-30T16:49:41;6.20;99.90